createdAt,value
2019-03-17T00:00:51.676Z,9.07
2019-03-17T00:03:17.887Z,9.05
2019-03-17T00:05:44.117Z,9.07
2019-03-17T00:08:10.215Z,9.06
2019-03-17T00:10:36.719Z,9.07
2019-03-17T00:13:03.323Z,9.09
2019-03-17T00:15:30.434Z,9.12
2019-03-17T00:17:56.487Z,9.07
2019-03-17T00:20:22.721Z,9.15
2019-03-17T00:22:48.950Z,9.04
2019-03-17T00:25:15.216Z,9.06
2019-03-17T00:27:41.783Z,9.08
2019-03-17T00:30:10.195Z,9.08
2019-03-17T00:32:36.354Z,9.00
2019-03-17T00:35:04.322Z,8.98
2019-03-17T00:37:30.819Z,8.92
2019-03-17T00:39:56.961Z,8.86
2019-03-17T00:42:23.162Z,8.89
2019-03-17T00:44:49.388Z,8.86
2019-03-17T00:47:15.640Z,8.87
2019-03-17T00:49:41.724Z,8.83
2019-03-17T00:52:08.047Z,8.88
2019-03-17T00:54:38.530Z,8.97
2019-03-17T00:57:04.961Z,8.92
2019-03-17T00:59:31.197Z,9.01
2019-03-17T01:01:57.585Z,9.03
2019-03-17T01:04:23.759Z,8.96
2019-03-17T01:06:49.889Z,9.00
2019-03-17T01:09:16.016Z,9.03
2019-03-17T01:11:42.092Z,9.02
2019-03-17T01:14:08.148Z,9.15
2019-03-17T01:16:34.347Z,9.09
2019-03-17T01:19:10.236Z,9.08
2019-03-17T01:21:36.994Z,9.01
2019-03-17T01:24:03.291Z,9.04
2019-03-17T01:26:29.733Z,9.05
2019-03-17T01:28:55.923Z,9.20
2019-03-17T01:31:22.039Z,9.10
2019-03-17T01:33:48.451Z,9.05
2019-03-17T01:36:14.514Z,9.06
2019-03-17T01:38:40.671Z,9.12
2019-03-17T01:41:06.805Z,9.14
2019-03-17T01:43:32.956Z,9.22
2019-03-17T01:45:59.159Z,9.12
2019-03-17T01:48:25.306Z,9.24
2019-03-17T01:50:51.515Z,9.20
2019-03-17T01:53:17.674Z,9.07
2019-03-17T01:55:43.777Z,9.15
2019-03-17T01:58:13.103Z,9.16
2019-03-17T02:00:39.571Z,9.16
2019-03-17T02:03:05.736Z,9.08
2019-03-17T02:05:31.774Z,9.21
2019-03-17T02:07:57.980Z,9.17
2019-03-17T02:10:25.027Z,9.17
2019-03-17T02:12:52.188Z,9.19
2019-03-17T02:15:18.274Z,9.22
2019-03-17T02:17:44.379Z,9.23
2019-03-17T02:20:10.769Z,9.27
2019-03-17T02:22:36.982Z,9.30
2019-03-17T02:25:04.649Z,9.31
2019-03-17T02:27:31.146Z,9.34
2019-03-17T02:29:57.329Z,9.31
2019-03-17T02:32:23.487Z,9.30
2019-03-17T02:34:49.743Z,9.16
2019-03-17T02:37:15.938Z,9.25
2019-03-17T02:39:42.144Z,9.21
2019-03-17T02:42:08.276Z,9.22
2019-03-17T02:44:34.589Z,9.19
2019-03-17T02:47:00.883Z,9.09
2019-03-17T02:49:27.078Z,9.20
2019-03-17T02:51:53.265Z,9.11
2019-03-17T02:54:19.464Z,9.06
2019-03-17T02:56:45.551Z,9.08
2019-03-17T02:59:11.746Z,9.11
2019-03-17T03:01:37.909Z,9.20
2019-03-17T03:04:04.099Z,9.16
2019-03-17T03:06:30.159Z,9.23
2019-03-17T03:08:56.318Z,9.27
2019-03-17T03:11:22.407Z,9.23
2019-03-17T03:13:48.433Z,9.34
2019-03-17T03:16:14.483Z,9.20
2019-03-17T03:18:40.668Z,9.20
2019-03-17T03:21:06.850Z,9.19
2019-03-17T03:23:32.984Z,9.07
2019-03-17T03:25:59.180Z,9.03
2019-03-17T03:28:25.393Z,9.12
2019-03-17T03:30:51.565Z,9.09
2019-03-17T03:33:17.958Z,8.98
2019-03-17T03:35:44.171Z,9.15
2019-03-17T03:38:10.311Z,9.03
2019-03-17T03:40:36.446Z,8.97
2019-03-17T03:43:03.616Z,9.04
2019-03-17T03:45:29.867Z,9.04
2019-03-17T03:47:56.059Z,8.95
2019-03-17T03:50:22.269Z,8.95
2019-03-17T03:52:48.439Z,9.02
2019-03-17T03:55:14.504Z,8.97
2019-03-17T03:57:40.655Z,8.95
2019-03-17T04:00:10.549Z,9.10
2019-03-17T04:02:36.673Z,8.98
2019-03-17T04:05:04.846Z,9.08
2019-03-17T04:07:30.963Z,9.09
2019-03-17T04:09:56.995Z,9.09
2019-03-17T04:12:23.059Z,9.19
2019-03-17T04:14:49.219Z,9.19
2019-03-17T04:17:15.271Z,9.21
2019-03-17T04:19:41.357Z,9.26
2019-03-17T04:22:07.474Z,9.15
2019-03-17T04:24:33.652Z,9.25
2019-03-17T04:26:59.702Z,9.25
2019-03-17T04:29:26.028Z,9.26
2019-03-17T04:31:52.427Z,9.19
2019-03-17T04:34:18.577Z,9.18
2019-03-17T04:36:44.660Z,9.18
2019-03-17T04:39:10.770Z,9.16
2019-03-17T04:41:36.916Z,9.26
2019-03-17T04:44:02.989Z,9.33
2019-03-17T04:46:29.412Z,9.27
2019-03-17T04:48:55.561Z,9.33
2019-03-17T04:51:21.731Z,9.30
2019-03-17T04:53:47.894Z,9.39
2019-03-17T04:56:13.978Z,9.37
2019-03-17T04:58:40.145Z,9.27
2019-03-17T05:01:06.382Z,9.36
2019-03-17T05:03:32.584Z,9.44
2019-03-17T05:06:01.784Z,9.49
2019-03-17T05:11:08.102Z,9.49
2019-03-17T05:13:34.194Z,9.36
2019-03-17T05:16:00.383Z,9.32
2019-03-17T05:18:26.551Z,9.30
2019-03-17T05:20:52.673Z,9.37
2019-03-17T05:23:18.819Z,9.33
2019-03-17T05:25:44.948Z,9.33
2019-03-17T05:28:11.037Z,9.22
2019-03-17T05:30:37.411Z,9.26
2019-03-17T05:33:04.061Z,9.23
2019-03-17T05:35:30.459Z,9.32
2019-03-17T05:37:56.604Z,9.25
2019-03-17T05:40:22.886Z,9.22
2019-03-17T05:42:49.041Z,9.22
2019-03-17T05:45:15.244Z,9.25
2019-03-17T05:47:41.404Z,9.23
2019-03-17T05:50:08.628Z,9.11
2019-03-17T05:52:34.955Z,9.23
2019-03-17T05:55:01.532Z,9.14
2019-03-17T05:57:27.823Z,9.17
2019-03-17T05:59:53.999Z,9.16
2019-03-17T06:02:20.111Z,9.25
2019-03-17T06:04:46.774Z,9.29
2019-03-17T06:07:18.574Z,9.35
2019-03-17T06:09:40.947Z,9.42
2019-03-17T06:12:07.090Z,9.46
2019-03-17T06:14:33.142Z,9.44
2019-03-17T06:16:59.431Z,9.52
2019-03-17T06:19:25.692Z,9.50
2019-03-17T06:21:52.200Z,9.59
2019-03-17T06:24:18.441Z,9.61
2019-03-17T06:26:44.963Z,9.66
2019-03-17T06:29:11.184Z,9.71
2019-03-17T06:31:37.315Z,9.77
2019-03-17T06:34:10.368Z,9.75
2019-03-17T06:36:36.550Z,9.67
2019-03-17T06:39:05.171Z,9.80
2019-03-17T06:41:31.339Z,9.71
2019-03-17T06:43:57.779Z,9.77
2019-03-17T06:46:24.096Z,9.77
2019-03-17T06:48:50.220Z,9.72
2019-03-17T06:51:16.428Z,9.81
2019-03-17T06:53:42.480Z,9.84
2019-03-17T06:56:09.019Z,9.82
2019-03-17T06:58:35.383Z,9.84
2019-03-17T07:01:01.504Z,9.80
2019-03-17T07:03:27.597Z,9.91
2019-03-17T07:05:54.023Z,9.91
2019-03-17T07:08:20.225Z,9.90
2019-03-17T07:10:49.860Z,9.88
2019-03-17T07:13:16.294Z,9.94
2019-03-17T07:15:47.958Z,10.06
2019-03-17T07:18:15.033Z,10.13
2019-03-17T07:20:41.274Z,10.19
2019-03-17T07:23:07.528Z,10.13
2019-03-17T07:25:33.592Z,10.18
2019-03-17T07:27:59.607Z,10.23
2019-03-17T07:30:25.658Z,10.22
2019-03-17T07:32:51.667Z,10.26
2019-03-17T07:35:17.714Z,10.36
2019-03-17T07:37:55.895Z,10.41
2019-03-17T07:40:12.407Z,10.40
2019-03-17T07:42:38.618Z,10.31
2019-03-17T07:45:07.284Z,10.36
2019-03-17T07:47:35.580Z,10.66
2019-03-17T07:50:01.406Z,10.68
2019-03-17T07:52:28.344Z,10.78
2019-03-17T07:54:54.511Z,10.70
2019-03-17T07:57:20.601Z,10.73
2019-03-17T07:59:46.800Z,10.72
2019-03-17T08:02:12.849Z,10.81
2019-03-17T08:04:43.785Z,10.67
2019-03-17T08:07:06.840Z,10.64
2019-03-17T08:09:32.974Z,10.89
2019-03-17T08:11:59.233Z,10.85
2019-03-17T08:14:25.343Z,10.62
2019-03-17T08:16:51.703Z,10.56
2019-03-17T08:19:18.613Z,10.67
2019-03-17T08:21:44.729Z,10.68
2019-03-17T08:24:10.898Z,10.54
2019-03-17T08:26:36.983Z,10.58
2019-03-17T08:29:03.052Z,10.52
2019-03-17T08:31:29.100Z,10.63
2019-03-17T08:33:55.167Z,10.57
2019-03-17T08:36:21.251Z,10.56
2019-03-17T08:38:47.784Z,10.46
2019-03-17T08:41:13.945Z,10.41
2019-03-17T08:43:40.394Z,10.43
2019-03-17T08:46:06.676Z,10.41
2019-03-17T08:48:32.918Z,10.45
2019-03-17T08:51:00.154Z,10.45
2019-03-17T08:53:26.423Z,10.28
2019-03-17T08:55:52.533Z,10.11
2019-03-17T08:58:19.079Z,9.88
2019-03-17T09:00:50.211Z,9.25
2019-03-17T09:03:17.180Z,8.87
2019-03-17T09:05:43.204Z,8.73
2019-03-17T09:08:09.866Z,8.66
2019-03-17T09:10:37.838Z,8.64
2019-03-17T09:13:04.491Z,8.51
2019-03-17T09:15:30.751Z,8.52
2019-03-17T09:17:56.803Z,8.42
2019-03-17T09:20:22.968Z,8.49
2019-03-17T09:22:49.288Z,8.34
2019-03-17T09:25:15.516Z,8.33
2019-03-17T09:27:41.673Z,8.45
2019-03-17T09:30:14.422Z,8.29
2019-03-17T09:32:40.547Z,8.00
2019-03-17T09:35:07.904Z,8.09
2019-03-17T09:37:34.028Z,8.02
2019-03-17T09:40:00.409Z,8.24
2019-03-17T09:42:26.566Z,8.34
2019-03-17T09:44:58.865Z,8.28
2019-03-17T09:47:24.931Z,8.28
2019-03-17T09:49:51.121Z,8.43
2019-03-17T09:52:17.243Z,8.37
2019-03-17T09:54:43.341Z,8.09
2019-03-17T09:57:09.385Z,8.14
2019-03-17T09:59:35.693Z,8.07
2019-03-17T10:02:01.822Z,8.14
2019-03-17T10:04:27.947Z,8.06
2019-03-17T10:06:54.093Z,8.00
2019-03-17T10:09:20.233Z,7.86
2019-03-17T10:11:46.423Z,7.89
2019-03-17T10:14:12.446Z,7.96
2019-03-17T10:16:42.381Z,8.13
2019-03-17T10:19:15.003Z,8.18
2019-03-17T10:21:41.274Z,8.16
2019-03-17T10:24:07.854Z,8.03
2019-03-17T10:26:34.118Z,8.14
2019-03-17T10:29:00.764Z,8.18
2019-03-17T10:31:27.942Z,8.27
2019-03-17T10:33:54.057Z,8.37
2019-03-17T10:36:20.218Z,8.56
2019-03-17T10:38:46.235Z,8.64
2019-03-17T10:41:12.418Z,8.57
2019-03-17T10:43:38.644Z,8.66
2019-03-17T10:46:05.104Z,8.62
2019-03-17T10:48:31.574Z,8.61
2019-03-17T10:50:57.935Z,8.73
2019-03-17T10:53:24.407Z,8.70
2019-03-17T10:55:50.806Z,8.64
2019-03-17T10:58:16.965Z,8.71
2019-03-17T11:00:43.447Z,8.63
2019-03-17T11:03:10.892Z,8.63
2019-03-17T11:05:37.792Z,8.63
2019-03-17T11:08:04.762Z,8.48
2019-03-17T11:10:31.112Z,8.36
2019-03-17T11:12:57.165Z,8.38
2019-03-17T11:15:27.646Z,8.19
2019-03-17T11:17:54.066Z,8.24
2019-03-17T11:20:20.143Z,8.22
2019-03-17T11:22:46.413Z,8.36
2019-03-17T11:25:16.204Z,8.46
2019-03-17T11:27:44.796Z,8.39
2019-03-17T11:30:12.438Z,8.45
2019-03-17T11:32:38.547Z,8.29
2019-03-17T11:35:05.699Z,8.39
2019-03-17T11:37:32.047Z,8.67
2019-03-17T11:40:05.205Z,8.66
2019-03-17T11:42:31.297Z,8.57
2019-03-17T11:44:58.012Z,8.81
2019-03-17T11:47:24.327Z,8.63
2019-03-17T11:49:50.675Z,8.57
2019-03-17T11:52:16.862Z,8.56
2019-03-17T11:54:43.051Z,8.48
2019-03-17T11:57:10.634Z,8.53
2019-03-17T11:59:37.515Z,8.49
2019-03-17T12:02:06.435Z,8.52
2019-03-17T12:04:32.848Z,8.42
2019-03-17T12:06:59.010Z,8.45
2019-03-17T12:09:29.291Z,8.48
2019-03-17T12:11:53.614Z,8.66
2019-03-17T12:14:19.777Z,8.81
2019-03-17T12:16:46.093Z,8.75
2019-03-17T12:21:51.268Z,9.38
2019-03-17T12:24:17.396Z,9.47
2019-03-17T12:26:43.596Z,9.62
2019-03-17T12:29:09.751Z,9.61
2019-03-17T12:31:35.787Z,10.00
2019-03-17T12:34:02.248Z,10.23
2019-03-17T12:36:28.385Z,10.28
2019-03-17T12:38:54.478Z,10.39
2019-03-17T12:41:20.597Z,9.67
2019-03-17T12:43:46.786Z,9.55
2019-03-17T12:46:12.865Z,9.75
2019-03-17T12:48:38.941Z,9.77
2019-03-17T12:51:05.026Z,10.01
2019-03-17T12:53:31.423Z,10.06
2019-03-17T12:55:57.587Z,9.91
2019-03-17T12:58:23.657Z,9.99
2019-03-17T13:00:49.764Z,9.91
2019-03-17T13:03:15.950Z,10.16
2019-03-17T13:05:42.404Z,10.82
2019-03-17T13:08:08.438Z,11.14
2019-03-17T13:10:34.536Z,11.43
2019-03-17T13:13:01.125Z,12.08
2019-03-17T13:15:27.694Z,12.04
2019-03-17T13:17:53.790Z,12.45
2019-03-17T13:20:21.876Z,13.17
2019-03-17T13:22:49.213Z,13.17
2019-03-17T13:25:16.363Z,13.16
2019-03-17T13:27:42.745Z,13.60
2019-03-17T13:30:12.979Z,13.88
2019-03-17T13:32:39.105Z,13.84
2019-03-17T13:35:07.439Z,12.49
2019-03-17T13:37:33.767Z,11.93
2019-03-17T13:39:59.778Z,11.55
2019-03-17T13:42:25.852Z,11.75
2019-03-17T13:44:51.883Z,11.41
2019-03-17T13:47:18.106Z,11.11
2019-03-17T13:49:44.275Z,10.98
2019-03-17T13:52:10.347Z,10.85
2019-03-17T13:54:36.477Z,10.78
2019-03-17T13:57:02.865Z,10.59
2019-03-17T13:59:28.959Z,10.84
2019-03-17T14:01:55.073Z,11.04
2019-03-17T14:04:21.552Z,11.14
2019-03-17T14:06:47.675Z,10.77
2019-03-17T14:09:14.173Z,10.67
2019-03-17T14:11:40.196Z,10.54
2019-03-17T14:14:06.292Z,10.70
2019-03-17T14:16:32.388Z,10.58
2019-03-17T14:18:58.469Z,10.93
2019-03-17T14:21:24.748Z,11.23
2019-03-17T14:23:50.981Z,11.67
2019-03-17T14:26:17.098Z,10.90
2019-03-17T14:28:43.168Z,10.89
2019-03-17T14:31:09.312Z,10.26
2019-03-17T14:33:35.474Z,10.21
2019-03-17T14:36:01.670Z,10.26
2019-03-17T14:38:27.819Z,10.34
2019-03-17T14:40:57.125Z,10.38
2019-03-17T14:43:21.954Z,9.48
2019-03-17T14:45:48.147Z,9.24
2019-03-17T14:48:14.330Z,9.14
2019-03-17T14:50:40.373Z,9.14
2019-03-17T14:53:06.431Z,9.22
2019-03-17T14:55:32.564Z,9.36
2019-03-17T14:57:58.720Z,9.39
2019-03-17T15:00:24.862Z,9.33
2019-03-17T15:02:51.033Z,9.29
2019-03-17T15:05:17.261Z,9.09
2019-03-17T15:07:43.718Z,8.90
2019-03-17T15:10:24.202Z,8.80
2019-03-17T15:12:50.315Z,9.02
2019-03-17T15:15:17.266Z,8.91
2019-03-17T15:17:43.908Z,8.88
2019-03-17T15:20:12.610Z,8.80
2019-03-17T15:22:38.635Z,8.87
2019-03-17T15:25:07.402Z,8.97
2019-03-17T15:27:33.502Z,9.03
2019-03-17T15:29:59.615Z,9.05
2019-03-17T15:32:25.757Z,9.18
2019-03-17T15:34:52.385Z,9.26
2019-03-17T15:37:18.829Z,9.23
2019-03-17T15:39:46.125Z,9.26
2019-03-17T15:42:12.424Z,9.34
2019-03-17T15:44:38.568Z,9.18
2019-03-17T15:47:04.599Z,9.22
2019-03-17T15:49:31.190Z,9.23
2019-03-17T15:51:57.849Z,9.12
2019-03-17T15:54:24.019Z,8.95
2019-03-17T15:56:50.124Z,8.77
2019-03-17T15:59:16.246Z,8.85
2019-03-17T16:01:42.911Z,8.77
2019-03-17T16:04:09.320Z,8.91
2019-03-17T16:06:35.450Z,8.85
2019-03-17T16:09:01.795Z,8.88
2019-03-17T16:11:31.243Z,8.80
2019-03-17T16:13:57.224Z,8.90
2019-03-17T16:16:23.478Z,8.78
2019-03-17T16:18:49.666Z,8.76
2019-03-17T16:21:15.783Z,8.74
2019-03-17T16:23:42.020Z,8.71
2019-03-17T16:26:08.223Z,8.62
2019-03-17T16:28:34.368Z,8.45
2019-03-17T16:31:00.922Z,8.30
2019-03-17T16:33:27.551Z,8.38
2019-03-17T16:35:54.138Z,8.30
2019-03-17T16:38:20.305Z,8.30
2019-03-17T16:40:46.356Z,8.19
2019-03-17T16:43:12.828Z,8.24
2019-03-17T16:45:39.294Z,8.38
2019-03-17T16:48:05.385Z,8.14
2019-03-17T16:50:34.869Z,8.09
2019-03-17T16:53:00.917Z,8.07
2019-03-17T16:55:27.116Z,8.18
2019-03-17T16:57:53.270Z,8.19
2019-03-17T17:00:21.853Z,8.19
2019-03-17T17:02:48.423Z,8.13
2019-03-17T17:05:16.410Z,8.14
2019-03-17T17:07:42.418Z,8.07
2019-03-17T17:10:12.745Z,8.16
2019-03-17T17:12:39.178Z,8.08
2019-03-17T17:15:15.047Z,8.04
2019-03-17T17:17:41.974Z,7.83
2019-03-17T17:20:17.245Z,7.88
2019-03-17T17:22:43.586Z,7.75
2019-03-17T17:25:10.590Z,7.85
2019-03-17T17:27:39.861Z,7.96
2019-03-17T17:30:13.785Z,8.09
2019-03-17T17:32:39.897Z,7.97
2019-03-17T17:35:22.311Z,7.94
2019-03-17T17:37:48.344Z,7.84
2019-03-17T17:40:19.086Z,7.77
2019-03-17T17:42:45.307Z,7.81
2019-03-17T17:45:14.398Z,7.65
2019-03-17T17:47:40.929Z,7.75
2019-03-17T17:50:16.070Z,7.62
2019-03-17T17:52:42.402Z,7.50
2019-03-17T17:55:08.649Z,7.32
2019-03-17T17:57:36.371Z,7.45
2019-03-17T18:00:16.362Z,7.35
2019-03-17T18:02:42.595Z,7.31
2019-03-17T18:05:08.799Z,7.15
2019-03-17T18:07:34.859Z,6.98
2019-03-17T18:10:00.922Z,6.83
2019-03-17T18:12:43.491Z,6.83
2019-03-17T18:15:21.678Z,6.87
2019-03-17T18:17:47.843Z,6.85
2019-03-17T18:20:14.378Z,6.88
2019-03-17T18:22:40.668Z,6.81
2019-03-17T18:25:10.414Z,6.78
2019-03-17T18:27:36.516Z,6.74
2019-03-17T18:30:06.723Z,6.71
2019-03-17T18:32:32.948Z,6.66
2019-03-17T18:34:59.114Z,6.78
2019-03-17T18:37:25.200Z,6.64
2019-03-17T18:39:51.351Z,6.59
2019-03-17T18:42:17.598Z,6.63
2019-03-17T18:44:43.842Z,6.52
2019-03-17T18:47:10.118Z,6.54
2019-03-17T18:49:36.161Z,6.44
2019-03-17T18:52:02.492Z,6.41
2019-03-17T18:54:28.516Z,6.42
2019-03-17T18:56:54.671Z,6.34
2019-03-17T18:59:20.749Z,6.42
2019-03-17T19:01:46.868Z,6.49
2019-03-17T19:04:12.920Z,6.44
2019-03-17T19:06:39.008Z,6.45
2019-03-17T19:09:05.406Z,6.41
2019-03-17T19:11:35.811Z,6.49
2019-03-17T19:14:02.474Z,6.48
2019-03-17T19:16:29.157Z,6.39
2019-03-17T19:18:56.329Z,6.53
2019-03-17T19:21:22.656Z,6.38
2019-03-17T19:23:50.813Z,6.42
2019-03-17T19:26:17.603Z,6.45
2019-03-17T19:28:43.926Z,6.37
2019-03-17T19:31:10.180Z,6.35
2019-03-17T19:33:36.895Z,6.36
2019-03-17T19:36:04.414Z,6.37
2019-03-17T19:38:30.953Z,6.39
2019-03-17T19:40:58.719Z,6.35
2019-03-17T19:43:24.903Z,6.25
2019-03-17T19:45:51.870Z,6.22
2019-03-17T19:48:18.160Z,6.07
2019-03-17T19:50:50.152Z,6.17
2019-03-17T19:53:16.652Z,6.12
2019-03-17T19:55:47.838Z,6.09
2019-03-17T19:58:14.200Z,6.16
2019-03-17T20:00:41.062Z,6.27
2019-03-17T20:03:07.188Z,6.20
2019-03-17T20:05:33.210Z,6.22
2019-03-17T20:07:59.315Z,6.22
2019-03-17T20:10:32.588Z,6.21
2019-03-17T20:13:10.800Z,6.28
2019-03-17T20:15:28.466Z,6.19
2019-03-17T20:17:56.669Z,6.26
2019-03-17T20:20:22.794Z,6.20
2019-03-17T20:22:49.264Z,6.30
2019-03-17T20:25:18.512Z,6.19
2019-03-17T20:27:44.740Z,6.12
2019-03-17T20:30:15.231Z,6.00
2019-03-17T20:32:45.382Z,6.00
2019-03-17T20:35:14.087Z,6.00
2019-03-17T20:37:40.303Z,6.01
2019-03-17T20:40:08.959Z,5.93
2019-03-17T20:42:35.513Z,5.98
2019-03-17T20:45:02.063Z,6.00
2019-03-17T20:47:28.364Z,6.05
2019-03-17T20:49:54.563Z,5.85
2019-03-17T20:52:20.747Z,5.93
2019-03-17T20:54:46.962Z,5.89
2019-03-17T20:57:13.053Z,5.91
2019-03-17T20:59:39.110Z,5.75
2019-03-17T21:02:05.162Z,5.90
2019-03-17T21:04:31.251Z,5.89
2019-03-17T21:06:57.379Z,5.74
2019-03-17T21:09:23.501Z,5.78
2019-03-17T21:11:49.625Z,5.82
2019-03-17T21:14:16.186Z,5.81
2019-03-17T21:16:44.248Z,5.80
2019-03-17T21:19:11.449Z,5.62
2019-03-17T21:21:37.706Z,5.62
2019-03-17T21:24:03.857Z,5.68
2019-03-17T21:26:31.633Z,5.68
2019-03-17T21:28:57.775Z,5.65
2019-03-17T21:31:23.865Z,5.63
2019-03-17T21:33:50.307Z,5.68
2019-03-17T21:36:16.529Z,5.60
2019-03-17T21:38:42.765Z,5.63
2019-03-17T21:41:09.146Z,5.60
2019-03-17T21:43:35.327Z,5.63
2019-03-17T21:46:01.493Z,5.57
2019-03-17T21:48:27.665Z,5.47
2019-03-17T21:50:53.705Z,5.52
2019-03-17T21:53:19.923Z,5.53
2019-03-17T21:55:45.990Z,5.41
2019-03-17T21:58:12.467Z,5.48
2019-03-17T22:00:38.678Z,5.51
2019-03-17T22:03:04.774Z,5.51
2019-03-17T22:05:31.278Z,5.65
2019-03-17T22:07:57.472Z,5.42
2019-03-17T22:10:23.680Z,5.52
2019-03-17T22:12:49.886Z,5.49
2019-03-17T22:15:16.809Z,5.52
2019-03-17T22:17:43.026Z,5.50
2019-03-17T22:20:13.162Z,5.55
2019-03-17T22:22:39.329Z,5.46
2019-03-17T22:25:07.872Z,5.48
2019-03-17T22:27:34.103Z,5.48
2019-03-17T22:30:00.355Z,5.40
2019-03-17T22:32:26.578Z,5.34
2019-03-17T22:34:52.689Z,5.40
2019-03-17T22:37:19.012Z,5.41
2019-03-17T22:39:45.416Z,5.40
2019-03-17T22:42:12.493Z,5.39
2019-03-17T22:44:38.694Z,5.43
2019-03-17T22:47:04.803Z,5.40
2019-03-17T22:49:31.133Z,5.42
2019-03-17T22:51:57.261Z,5.40
2019-03-17T22:54:23.407Z,5.26
2019-03-17T22:56:49.612Z,5.27
2019-03-17T22:59:16.155Z,5.24
2019-03-17T23:01:42.399Z,5.34
2019-03-17T23:04:08.451Z,5.33
2019-03-17T23:06:34.586Z,5.23
2019-03-17T23:09:05.528Z,5.21
2019-03-17T23:11:31.809Z,5.18
2019-03-17T23:13:58.043Z,5.20
2019-03-17T23:16:24.258Z,5.19
2019-03-17T23:18:50.442Z,5.25
2019-03-17T23:21:16.974Z,5.19
2019-03-17T23:23:43.427Z,5.11
2019-03-17T23:26:09.541Z,5.25
2019-03-17T23:28:35.678Z,5.13
2019-03-17T23:31:01.909Z,5.10
2019-03-17T23:33:28.331Z,5.16
2019-03-17T23:35:54.415Z,5.08
2019-03-17T23:38:20.432Z,5.07
2019-03-17T23:40:46.494Z,5.08
2019-03-17T23:43:12.570Z,5.12
2019-03-17T23:45:38.757Z,5.05
2019-03-17T23:48:04.824Z,5.13
2019-03-17T23:50:31.011Z,5.15
2019-03-17T23:52:57.432Z,5.19
2019-03-17T23:55:23.611Z,5.13
2019-03-17T23:57:52.042Z,5.11
